sensor_id;sensor_type;location;lat;lon;timestamp;temperature;humidity
23116;DHT22;11727;52.134;5.052;2023-04-07T00:01:22;8.30;99.90
23116;DHT22;11727;52.134;5.052;2023-04-07T00:03:48;8.30;99.90
23116;DHT22;11727;52.134;5.052;2023-04-07T00:06:14;8.30;99.90
23116;DHT22;11727;52.134;5.052;2023-04-07T00:08:40;8.30;99.90
23116;DHT22;11727;52.134;5.052;2023-04-07T00:11:06;8.30;99.90
23116;DHT22;11727;52.134;5.052;2023-04-07T00:13:33;8.30;99.90
23116;DHT22;11727;52.134;5.052;2023-04-07T00:15:58;8.30;99.90
23116;DHT22;11727;52.134;5.052;2023-04-07T00:18:24;8.30;99.90
23116;DHT22;11727;52.134;5.052;2023-04-07T00:20:49;8.30;99.90
23116;DHT22;11727;52.134;5.052;2023-04-07T00:23:15;8.30;99.90
23116;DHT22;11727;52.134;5.052;2023-04-07T00:25:41;8.30;99.90
23116;DHT22;11727;52.134;5.052;2023-04-07T00:28:06;8.30;99.90
23116;DHT22;11727;52.134;5.052;2023-04-07T00:30:32;8.30;99.90
23116;DHT22;11727;52.134;5.052;2023-04-07T00:32:57;8.30;99.90
23116;DHT22;11727;52.134;5.052;2023-04-07T00:35:23;8.30;99.90
23116;DHT22;11727;52.134;5.052;2023-04-07T00:37:48;8.30;99.90
23116;DHT22;11727;52.134;5.052;2023-04-07T00:40:14;8.30;99.90
23116;DHT22;11727;52.134;5.052;2023-04-07T00:42:40;8.30;99.90
23116;DHT22;11727;52.134;5.052;2023-04-07T00:45:06;8.30;99.90
23116;DHT22;11727;52.134;5.052;2023-04-07T00:47:32;8.30;99.90
23116;DHT22;11727;52.134;5.052;2023-04-07T00:49:57;8.40;99.90
23116;DHT22;11727;52.134;5.052;2023-04-07T00:52:23;8.40;99.90
23116;DHT22;11727;52.134;5.052;2023-04-07T00:54:54;8.30;99.90
23116;DHT22;11727;52.134;5.052;2023-04-07T00:57:20;8.40;99.90
23116;DHT22;11727;52.134;5.052;2023-04-07T00:59:48;8.40;99.90
23116;DHT22;11727;52.134;5.052;2023-04-07T01:05:41;8.40;99.90
23116;DHT22;11727;52.134;5.052;2023-04-07T01:08:14;8.30;99.90
23116;DHT22;11727;52.134;5.052;2023-04-07T01:11:07;8.30;99.90
23116;DHT22;11727;52.134;5.052;2023-04-07T01:13:37;8.30;99.90
23116;DHT22;11727;52.134;5.052;2023-04-07T01:16:11;8.30;99.90
23116;DHT22;11727;52.134;5.052;2023-04-07T01:18:38;8.30;99.90
23116;DHT22;11727;52.134;5.052;2023-04-07T01:21:13;8.30;99.90
23116;DHT22;11727;52.134;5.052;2023-04-07T01:24:02;8.30;99.90
23116;DHT22;11727;52.134;5.052;2023-04-07T01:26:31;8.30;99.90
23116;DHT22;11727;52.134;5.052;2023-04-07T01:29:17;8.30;99.90
23116;DHT22;11727;52.134;5.052;2023-04-07T01:31:44;8.30;99.90
23116;DHT22;11727;52.134;5.052;2023-04-07T01:34:11;8.30;99.90
23116;DHT22;11727;52.134;5.052;2023-04-07T01:36:37;8.30;99.90
23116;DHT22;11727;52.134;5.052;2023-04-07T01:39:04;8.40;99.90
23116;DHT22;11727;52.134;5.052;2023-04-07T01:41:31;8.40;99.90
23116;DHT22;11727;52.134;5.052;2023-04-07T01:43:58;8.30;99.90
23116;DHT22;11727;52.134;5.052;2023-04-07T01:46:25;8.30;99.90
23116;DHT22;11727;52.134;5.052;2023-04-07T01:48:51;8.40;99.90
23116;DHT22;11727;52.134;5.052;2023-04-07T01:51:19;8.30;99.90
23116;DHT22;11727;52.134;5.052;2023-04-07T01:53:45;8.30;99.90
23116;DHT22;11727;52.134;5.052;2023-04-07T01:56:11;8.30;99.90
23116;DHT22;11727;52.134;5.052;2023-04-07T01:58:37;8.30;99.90
23116;DHT22;11727;52.134;5.052;2023-04-07T02:01:03;8.30;99.90
23116;DHT22;11727;52.134;5.052;2023-04-07T02:03:35;8.30;99.90
23116;DHT22;11727;52.134;5.052;2023-04-07T02:06:06;8.40;99.90
23116;DHT22;11727;52.134;5.052;2023-04-07T02:08:35;8.30;99.90
23116;DHT22;11727;52.134;5.052;2023-04-07T02:11:04;8.30;99.90
23116;DHT22;11727;52.134;5.052;2023-04-07T02:13:33;8.40;99.90
23116;DHT22;11727;52.134;5.052;2023-04-07T02:16:00;8.30;99.90
23116;DHT22;11727;52.134;5.052;2023-04-07T02:18:27;8.30;99.90
23116;DHT22;11727;52.134;5.052;2023-04-07T02:20:55;8.30;99.90
23116;DHT22;11727;52.134;5.052;2023-04-07T02:23:21;8.40;99.90
23116;DHT22;11727;52.134;5.052;2023-04-07T02:25:46;8.30;99.90
23116;DHT22;11727;52.134;5.052;2023-04-07T02:28:12;8.40;99.90
23116;DHT22;11727;52.134;5.052;2023-04-07T02:30:38;8.40;99.90
23116;DHT22;11727;52.134;5.052;2023-04-07T02:33:04;8.30;99.90
23116;DHT22;11727;52.134;5.052;2023-04-07T02:35:29;8.30;99.90
23116;DHT22;11727;52.134;5.052;2023-04-07T02:37:55;8.30;99.90
23116;DHT22;11727;52.134;5.052;2023-04-07T02:40:21;8.30;99.90
23116;DHT22;11727;52.134;5.052;2023-04-07T02:42:47;8.30;99.90
23116;DHT22;11727;52.134;5.052;2023-04-07T02:45:12;8.30;99.90
23116;DHT22;11727;52.134;5.052;2023-04-07T02:47:38;8.30;99.90
23116;DHT22;11727;52.134;5.052;2023-04-07T02:50:04;8.30;99.90
23116;DHT22;11727;52.134;5.052;2023-04-07T02:52:30;8.30;99.90
23116;DHT22;11727;52.134;5.052;2023-04-07T02:54:56;8.30;99.90
23116;DHT22;11727;52.134;5.052;2023-04-07T02:57:21;8.30;99.90
23116;DHT22;11727;52.134;5.052;2023-04-07T02:59:47;8.30;99.90
23116;DHT22;11727;52.134;5.052;2023-04-07T03:02:12;8.30;99.90
23116;DHT22;11727;52.134;5.052;2023-04-07T03:04:38;8.30;99.90
23116;DHT22;11727;52.134;5.052;2023-04-07T03:07:04;8.30;99.90
23116;DHT22;11727;52.134;5.052;2023-04-07T03:09:30;8.40;99.90
23116;DHT22;11727;52.134;5.052;2023-04-07T03:11:55;8.30;99.90
23116;DHT22;11727;52.134;5.052;2023-04-07T03:14:21;8.30;99.90
23116;DHT22;11727;52.134;5.052;2023-04-07T03:16:49;8.40;99.90
23116;DHT22;11727;52.134;5.052;2023-04-07T03:19:15;8.30;99.90
23116;DHT22;11727;52.134;5.052;2023-04-07T03:21:41;8.40;99.90
23116;DHT22;11727;52.134;5.052;2023-04-07T03:24:07;8.30;99.90
23116;DHT22;11727;52.134;5.052;2023-04-07T03:26:32;8.40;99.90
23116;DHT22;11727;52.134;5.052;2023-04-07T03:28:58;8.30;99.90
23116;DHT22;11727;52.134;5.052;2023-04-07T03:31:24;8.40;99.90
23116;DHT22;11727;52.134;5.052;2023-04-07T03:33:50;8.40;99.90
23116;DHT22;11727;52.134;5.052;2023-04-07T03:36:16;8.40;99.90
23116;DHT22;11727;52.134;5.052;2023-04-07T03:38:46;8.40;99.90
23116;DHT22;11727;52.134;5.052;2023-04-07T03:41:12;8.30;99.90
23116;DHT22;11727;52.134;5.052;2023-04-07T03:43:37;8.40;99.90
23116;DHT22;11727;52.134;5.052;2023-04-07T03:46:03;8.40;99.90
23116;DHT22;11727;52.134;5.052;2023-04-07T03:48:28;8.30;99.90
23116;DHT22;11727;52.134;5.052;2023-04-07T03:50:54;8.40;99.90
23116;DHT22;11727;52.134;5.052;2023-04-07T03:53:20;8.40;99.90
23116;DHT22;11727;52.134;5.052;2023-04-07T03:55:46;8.40;99.90
23116;DHT22;11727;52.134;5.052;2023-04-07T03:58:12;8.30;99.90
23116;DHT22;11727;52.134;5.052;2023-04-07T04:00:38;8.40;99.90
23116;DHT22;11727;52.134;5.052;2023-04-07T04:03:04;8.40;99.90
23116;DHT22;11727;52.134;5.052;2023-04-07T04:05:30;8.40;99.90
23116;DHT22;11727;52.134;5.052;2023-04-07T04:07:55;8.40;99.90
23116;DHT22;11727;52.134;5.052;2023-04-07T04:10:21;8.40;99.90
23116;DHT22;11727;52.134;5.052;2023-04-07T04:12:47;8.40;99.90
23116;DHT22;11727;52.134;5.052;2023-04-07T04:15:13;8.40;99.90
23116;DHT22;11727;52.134;5.052;2023-04-07T04:17:39;8.40;99.90
23116;DHT22;11727;52.134;5.052;2023-04-07T04:20:06;8.40;99.90
23116;DHT22;11727;52.134;5.052;2023-04-07T04:22:32;8.40;99.90
23116;DHT22;11727;52.134;5.052;2023-04-07T04:24:58;8.40;99.90
23116;DHT22;11727;52.134;5.052;2023-04-07T04:27:23;8.40;99.90
23116;DHT22;11727;52.134;5.052;2023-04-07T04:29:49;8.40;99.90
23116;DHT22;11727;52.134;5.052;2023-04-07T04:32:15;8.40;99.90
23116;DHT22;11727;52.134;5.052;2023-04-07T04:34:42;8.40;99.90
23116;DHT22;11727;52.134;5.052;2023-04-07T04:37:08;8.40;99.90
23116;DHT22;11727;52.134;5.052;2023-04-07T04:39:33;8.40;99.90
23116;DHT22;11727;52.134;5.052;2023-04-07T04:41:59;8.40;99.90
23116;DHT22;11727;52.134;5.052;2023-04-07T04:44:26;8.40;99.90
23116;DHT22;11727;52.134;5.052;2023-04-07T04:46:52;8.40;99.90
23116;DHT22;11727;52.134;5.052;2023-04-07T04:49:17;8.40;99.90
23116;DHT22;11727;52.134;5.052;2023-04-07T04:51:44;8.30;99.90
23116;DHT22;11727;52.134;5.052;2023-04-07T04:54:09;8.40;99.90
23116;DHT22;11727;52.134;5.052;2023-04-07T04:56:35;8.40;99.90
23116;DHT22;11727;52.134;5.052;2023-04-07T04:59:02;8.40;99.90
23116;DHT22;11727;52.134;5.052;2023-04-07T05:01:27;8.30;99.90
23116;DHT22;11727;52.134;5.052;2023-04-07T05:03:53;8.30;99.90
23116;DHT22;11727;52.134;5.052;2023-04-07T05:06:18;8.30;99.90
23116;DHT22;11727;52.134;5.052;2023-04-07T05:08:44;8.30;99.90
23116;DHT22;11727;52.134;5.052;2023-04-07T05:11:11;8.30;99.90
23116;DHT22;11727;52.134;5.052;2023-04-07T05:13:36;8.30;99.90
23116;DHT22;11727;52.134;5.052;2023-04-07T05:16:02;8.30;99.90
23116;DHT22;11727;52.134;5.052;2023-04-07T05:18:28;8.30;99.90
23116;DHT22;11727;52.134;5.052;2023-04-07T05:20:53;8.20;99.90
23116;DHT22;11727;52.134;5.052;2023-04-07T05:23:19;8.30;99.90
23116;DHT22;11727;52.134;5.052;2023-04-07T05:25:44;8.30;99.90
23116;DHT22;11727;52.134;5.052;2023-04-07T05:28:10;8.30;99.90
23116;DHT22;11727;52.134;5.052;2023-04-07T05:30:36;8.20;99.90
23116;DHT22;11727;52.134;5.052;2023-04-07T05:33:01;8.30;99.90
23116;DHT22;11727;52.134;5.052;2023-04-07T05:35:27;8.20;99.90
23116;DHT22;11727;52.134;5.052;2023-04-07T05:37:52;8.20;99.90
23116;DHT22;11727;52.134;5.052;2023-04-07T05:40:18;8.30;99.90
23116;DHT22;11727;52.134;5.052;2023-04-07T05:42:44;8.30;99.90
23116;DHT22;11727;52.134;5.052;2023-04-07T05:45:10;8.30;99.90
23116;DHT22;11727;52.134;5.052;2023-04-07T05:47:36;8.30;99.90
23116;DHT22;11727;52.134;5.052;2023-04-07T05:50:01;8.30;99.90
23116;DHT22;11727;52.134;5.052;2023-04-07T05:52:27;8.30;99.90
23116;DHT22;11727;52.134;5.052;2023-04-07T05:54:53;8.30;99.90
23116;DHT22;11727;52.134;5.052;2023-04-07T05:57:18;8.30;99.90
23116;DHT22;11727;52.134;5.052;2023-04-07T05:59:44;8.30;99.90
23116;DHT22;11727;52.134;5.052;2023-04-07T06:02:10;8.30;99.90
23116;DHT22;11727;52.134;5.052;2023-04-07T06:04:35;8.30;99.90
23116;DHT22;11727;52.134;5.052;2023-04-07T06:07:01;8.30;99.90
23116;DHT22;11727;52.134;5.052;2023-04-07T06:09:27;8.30;99.90
23116;DHT22;11727;52.134;5.052;2023-04-07T06:11:53;8.30;99.90
23116;DHT22;11727;52.134;5.052;2023-04-07T06:14:18;8.30;99.90
23116;DHT22;11727;52.134;5.052;2023-04-07T06:16:44;8.30;99.90
23116;DHT22;11727;52.134;5.052;2023-04-07T06:19:10;8.30;99.90
23116;DHT22;11727;52.134;5.052;2023-04-07T06:21:36;8.30;99.90
23116;DHT22;11727;52.134;5.052;2023-04-07T06:24:01;8.30;99.90
23116;DHT22;11727;52.134;5.052;2023-04-07T06:26:27;8.30;99.90
23116;DHT22;11727;52.134;5.052;2023-04-07T06:28:53;8.30;99.90
23116;DHT22;11727;52.134;5.052;2023-04-07T06:31:19;8.30;99.90
23116;DHT22;11727;52.134;5.052;2023-04-07T06:33:45;8.30;99.90
23116;DHT22;11727;52.134;5.052;2023-04-07T06:36:11;8.30;99.90
23116;DHT22;11727;52.134;5.052;2023-04-07T06:38:37;8.30;99.90
23116;DHT22;11727;52.134;5.052;2023-04-07T06:41:03;8.30;99.90
23116;DHT22;11727;52.134;5.052;2023-04-07T06:43:29;8.40;99.90
23116;DHT22;11727;52.134;5.052;2023-04-07T06:45:55;8.40;99.90
23116;DHT22;11727;52.134;5.052;2023-04-07T06:48:21;8.40;99.90
23116;DHT22;11727;52.134;5.052;2023-04-07T06:50:48;8.40;99.90
23116;DHT22;11727;52.134;5.052;2023-04-07T06:53:14;8.40;99.90
23116;DHT22;11727;52.134;5.052;2023-04-07T06:55:40;8.50;99.90
23116;DHT22;11727;52.134;5.052;2023-04-07T06:58:06;8.50;99.90
23116;DHT22;11727;52.134;5.052;2023-04-07T07:00:31;8.40;99.90
23116;DHT22;11727;52.134;5.052;2023-04-07T07:02:57;8.40;99.90
23116;DHT22;11727;52.134;5.052;2023-04-07T07:05:23;8.50;99.90
23116;DHT22;11727;52.134;5.052;2023-04-07T07:07:49;8.50;99.90
23116;DHT22;11727;52.134;5.052;2023-04-07T07:10:15;8.50;99.90
23116;DHT22;11727;52.134;5.052;2023-04-07T07:12:40;8.50;99.90
23116;DHT22;11727;52.134;5.052;2023-04-07T07:15:06;8.60;99.90
23116;DHT22;11727;52.134;5.052;2023-04-07T07:17:32;8.60;99.90
23116;DHT22;11727;52.134;5.052;2023-04-07T07:19:58;8.60;99.90
23116;DHT22;11727;52.134;5.052;2023-04-07T07:22:24;8.60;99.90
23116;DHT22;11727;52.134;5.052;2023-04-07T07:24:49;8.60;99.90
23116;DHT22;11727;52.134;5.052;2023-04-07T07:27:15;8.60;99.90
23116;DHT22;11727;52.134;5.052;2023-04-07T07:29:41;8.60;99.90
23116;DHT22;11727;52.134;5.052;2023-04-07T07:32:06;8.60;99.90
23116;DHT22;11727;52.134;5.052;2023-04-07T07:34:32;8.60;99.90
23116;DHT22;11727;52.134;5.052;2023-04-07T07:36:58;8.70;99.90
23116;DHT22;11727;52.134;5.052;2023-04-07T07:39:24;8.70;99.90
23116;DHT22;11727;52.134;5.052;2023-04-07T07:41:50;8.70;99.90
23116;DHT22;11727;52.134;5.052;2023-04-07T07:44:16;8.70;99.90
23116;DHT22;11727;52.134;5.052;2023-04-07T07:46:41;8.70;99.90
23116;DHT22;11727;52.134;5.052;2023-04-07T07:49:07;8.70;99.90
23116;DHT22;11727;52.134;5.052;2023-04-07T07:51:34;8.70;99.90
23116;DHT22;11727;52.134;5.052;2023-04-07T07:54:00;8.60;99.90
23116;DHT22;11727;52.134;5.052;2023-04-07T07:56:25;8.60;99.90
23116;DHT22;11727;52.134;5.052;2023-04-07T07:58:51;8.70;99.90
23116;DHT22;11727;52.134;5.052;2023-04-07T08:01:17;8.70;99.90
23116;DHT22;11727;52.134;5.052;2023-04-07T08:03:43;8.70;99.90
23116;DHT22;11727;52.134;5.052;2023-04-07T08:06:08;8.70;99.90
23116;DHT22;11727;52.134;5.052;2023-04-07T08:08:34;8.80;99.90
23116;DHT22;11727;52.134;5.052;2023-04-07T08:11:00;8.90;99.90
23116;DHT22;11727;52.134;5.052;2023-04-07T08:13:26;9.00;99.90
23116;DHT22;11727;52.134;5.052;2023-04-07T08:15:52;9.00;99.90
23116;DHT22;11727;52.134;5.052;2023-04-07T08:18:18;9.10;99.90
23116;DHT22;11727;52.134;5.052;2023-04-07T08:20:44;9.20;99.90
23116;DHT22;11727;52.134;5.052;2023-04-07T08:23:09;9.20;99.90
23116;DHT22;11727;52.134;5.052;2023-04-07T08:25:35;9.30;99.90
23116;DHT22;11727;52.134;5.052;2023-04-07T08:28:01;9.30;99.90
23116;DHT22;11727;52.134;5.052;2023-04-07T08:30:26;9.40;99.90
23116;DHT22;11727;52.134;5.052;2023-04-07T08:32:52;9.30;99.90
23116;DHT22;11727;52.134;5.052;2023-04-07T08:35:17;9.40;99.90
23116;DHT22;11727;52.134;5.052;2023-04-07T08:37:43;9.40;99.90
23116;DHT22;11727;52.134;5.052;2023-04-07T08:40:09;9.30;99.90
23116;DHT22;11727;52.134;5.052;2023-04-07T08:42:40;9.30;99.90
23116;DHT22;11727;52.134;5.052;2023-04-07T08:45:07;9.40;99.90
23116;DHT22;11727;52.134;5.052;2023-04-07T08:47:34;9.50;99.90
23116;DHT22;11727;52.134;5.052;2023-04-07T08:50:09;9.60;99.90
23116;DHT22;11727;52.134;5.052;2023-04-07T08:52:44;9.60;99.90
23116;DHT22;11727;52.134;5.052;2023-04-07T08:55:13;9.60;99.90
23116;DHT22;11727;52.134;5.052;2023-04-07T08:57:40;9.60;99.90
23116;DHT22;11727;52.134;5.052;2023-04-07T09:00:07;9.60;99.90
23116;DHT22;11727;52.134;5.052;2023-04-07T09:02:34;9.60;99.90
23116;DHT22;11727;52.134;5.052;2023-04-07T09:05:02;9.60;99.90
23116;DHT22;11727;52.134;5.052;2023-04-07T09:07:29;9.60;99.90
23116;DHT22;11727;52.134;5.052;2023-04-07T09:09:55;9.60;99.90
23116;DHT22;11727;52.134;5.052;2023-04-07T09:12:21;9.50;99.90
23116;DHT22;11727;52.134;5.052;2023-04-07T09:14:47;9.50;99.90
23116;DHT22;11727;52.134;5.052;2023-04-07T09:17:12;9.40;99.90
23116;DHT22;11727;52.134;5.052;2023-04-07T09:19:38;9.40;99.90
23116;DHT22;11727;52.134;5.052;2023-04-07T09:22:04;9.40;99.90
23116;DHT22;11727;52.134;5.052;2023-04-07T09:24:29;9.40;99.90
23116;DHT22;11727;52.134;5.052;2023-04-07T09:27:17;9.50;99.90
23116;DHT22;11727;52.134;5.052;2023-04-07T09:29:45;9.50;99.90
23116;DHT22;11727;52.134;5.052;2023-04-07T09:32:11;9.50;99.90
23116;DHT22;11727;52.134;5.052;2023-04-07T09:34:38;9.50;99.90
23116;DHT22;11727;52.134;5.052;2023-04-07T09:37:06;9.50;99.90
23116;DHT22;11727;52.134;5.052;2023-04-07T09:39:32;9.50;99.90
23116;DHT22;11727;52.134;5.052;2023-04-07T09:41:58;9.60;99.90
23116;DHT22;11727;52.134;5.052;2023-04-07T09:44:38;9.60;99.90
23116;DHT22;11727;52.134;5.052;2023-04-07T09:47:05;9.70;99.90
23116;DHT22;11727;52.134;5.052;2023-04-07T09:49:31;9.80;99.90
23116;DHT22;11727;52.134;5.052;2023-04-07T09:51:58;9.80;99.90
23116;DHT22;11727;52.134;5.052;2023-04-07T09:54:41;9.80;99.90
23116;DHT22;11727;52.134;5.052;2023-04-07T09:57:08;9.80;99.90
23116;DHT22;11727;52.134;5.052;2023-04-07T09:59:35;9.90;99.90
23116;DHT22;11727;52.134;5.052;2023-04-07T10:02:01;9.90;99.90
23116;DHT22;11727;52.134;5.052;2023-04-07T10:04:27;10.00;99.90
23116;DHT22;11727;52.134;5.052;2023-04-07T10:06:57;10.00;99.90
23116;DHT22;11727;52.134;5.052;2023-04-07T10:09:24;10.00;99.90
23116;DHT22;11727;52.134;5.052;2023-04-07T10:11:51;10.00;99.90
23116;DHT22;11727;52.134;5.052;2023-04-07T10:14:19;10.00;99.90
23116;DHT22;11727;52.134;5.052;2023-04-07T10:16:46;9.90;99.90
23116;DHT22;11727;52.134;5.052;2023-04-07T10:19:12;9.90;99.90
23116;DHT22;11727;52.134;5.052;2023-04-07T10:21:42;9.80;99.90
23116;DHT22;11727;52.134;5.052;2023-04-07T10:24:45;9.80;99.90
23116;DHT22;11727;52.134;5.052;2023-04-07T10:27:16;9.70;99.90
23116;DHT22;11727;52.134;5.052;2023-04-07T10:29:46;9.70;99.90
23116;DHT22;11727;52.134;5.052;2023-04-07T10:32:13;9.80;99.90
23116;DHT22;11727;52.134;5.052;2023-04-07T10:34:59;9.70;99.90
23116;DHT22;11727;52.134;5.052;2023-04-07T10:37:25;9.70;99.90
23116;DHT22;11727;52.134;5.052;2023-04-07T10:40:25;9.70;99.90
23116;DHT22;11727;52.134;5.052;2023-04-07T10:42:52;9.70;99.90
23116;DHT22;11727;52.134;5.052;2023-04-07T10:48:24;9.90;99.90
23116;DHT22;11727;52.134;5.052;2023-04-07T10:53:32;10.10;99.90
23116;DHT22;11727;52.134;5.052;2023-04-07T10:55:59;10.30;99.90
23116;DHT22;11727;52.134;5.052;2023-04-07T10:58:29;10.40;99.90
23116;DHT22;11727;52.134;5.052;2023-04-07T11:03:43;10.60;99.90
23116;DHT22;11727;52.134;5.052;2023-04-07T11:06:16;10.60;99.90
23116;DHT22;11727;52.134;5.052;2023-04-07T11:08:43;10.60;99.90
23116;DHT22;11727;52.134;5.052;2023-04-07T11:11:15;10.50;99.90
23116;DHT22;11727;52.134;5.052;2023-04-07T11:13:48;10.40;99.90
23116;DHT22;11727;52.134;5.052;2023-04-07T11:16:16;10.30;99.90
23116;DHT22;11727;52.134;5.052;2023-04-07T11:18:43;10.30;99.90
23116;DHT22;11727;52.134;5.052;2023-04-07T11:21:09;10.30;99.90
23116;DHT22;11727;52.134;5.052;2023-04-07T11:23:42;10.30;99.90
23116;DHT22;11727;52.134;5.052;2023-04-07T11:26:10;10.40;99.90
23116;DHT22;11727;52.134;5.052;2023-04-07T11:31:20;10.60;99.90
23116;DHT22;11727;52.134;5.052;2023-04-07T11:33:52;10.70;99.90
23116;DHT22;11727;52.134;5.052;2023-04-07T11:36:25;10.60;99.90
23116;DHT22;11727;52.134;5.052;2023-04-07T11:38:51;10.60;99.90
23116;DHT22;11727;52.134;5.052;2023-04-07T11:41:17;10.60;99.90
23116;DHT22;11727;52.134;5.052;2023-04-07T11:43:42;10.60;99.90
23116;DHT22;11727;52.134;5.052;2023-04-07T11:46:10;10.60;99.90
23116;DHT22;11727;52.134;5.052;2023-04-07T11:48:37;10.70;99.90
23116;DHT22;11727;52.134;5.052;2023-04-07T11:51:03;10.70;99.90
23116;DHT22;11727;52.134;5.052;2023-04-07T11:53:33;10.70;99.90
23116;DHT22;11727;52.134;5.052;2023-04-07T11:56:04;10.70;99.90
23116;DHT22;11727;52.134;5.052;2023-04-07T11:58:31;10.70;99.90
23116;DHT22;11727;52.134;5.052;2023-04-07T12:01:04;10.80;99.90
23116;DHT22;11727;52.134;5.052;2023-04-07T12:03:34;10.90;99.90
23116;DHT22;11727;52.134;5.052;2023-04-07T12:06:01;11.00;99.90
23116;DHT22;11727;52.134;5.052;2023-04-07T12:08:40;10.90;99.90
23116;DHT22;11727;52.134;5.052;2023-04-07T12:11:07;11.00;99.90
23116;DHT22;11727;52.134;5.052;2023-04-07T12:13:34;10.90;99.90
23116;DHT22;11727;52.134;5.052;2023-04-07T12:16:00;10.80;99.90
23116;DHT22;11727;52.134;5.052;2023-04-07T12:18:27;10.70;99.90
23116;DHT22;11727;52.134;5.052;2023-04-07T12:20:53;10.60;99.90
23116;DHT22;11727;52.134;5.052;2023-04-07T12:23:18;10.50;99.90
23116;DHT22;11727;52.134;5.052;2023-04-07T12:25:44;10.40;99.90
23116;DHT22;11727;52.134;5.052;2023-04-07T12:28:10;10.50;99.90
23116;DHT22;11727;52.134;5.052;2023-04-07T12:30:35;10.50;99.90
23116;DHT22;11727;52.134;5.052;2023-04-07T12:33:01;10.50;99.90
23116;DHT22;11727;52.134;5.052;2023-04-07T12:35:28;10.50;99.90
23116;DHT22;11727;52.134;5.052;2023-04-07T12:37:54;10.50;99.90
23116;DHT22;11727;52.134;5.052;2023-04-07T12:40:21;10.50;99.90
23116;DHT22;11727;52.134;5.052;2023-04-07T12:42:47;10.40;99.90
23116;DHT22;11727;52.134;5.052;2023-04-07T12:45:13;10.40;99.90
23116;DHT22;11727;52.134;5.052;2023-04-07T12:47:38;10.30;99.90
23116;DHT22;11727;52.134;5.052;2023-04-07T12:50:04;10.20;99.90
23116;DHT22;11727;52.134;5.052;2023-04-07T12:52:30;10.10;99.90
23116;DHT22;11727;52.134;5.052;2023-04-07T12:54:56;10.00;99.90
23116;DHT22;11727;52.134;5.052;2023-04-07T12:57:22;9.90;99.90
23116;DHT22;11727;52.134;5.052;2023-04-07T12:59:48;9.90;99.90
23116;DHT22;11727;52.134;5.052;2023-04-07T13:02:14;9.80;99.90
23116;DHT22;11727;52.134;5.052;2023-04-07T13:04:51;9.80;99.90
23116;DHT22;11727;52.134;5.052;2023-04-07T13:07:16;9.80;99.90
23116;DHT22;11727;52.134;5.052;2023-04-07T13:09:42;9.80;99.90
23116;DHT22;11727;52.134;5.052;2023-04-07T13:12:09;9.80;99.90
23116;DHT22;11727;52.134;5.052;2023-04-07T13:14:39;9.80;99.90
23116;DHT22;11727;52.134;5.052;2023-04-07T13:17:06;9.80;99.90
23116;DHT22;11727;52.134;5.052;2023-04-07T13:19:32;9.80;99.90
23116;DHT22;11727;52.134;5.052;2023-04-07T13:21:58;9.80;99.90
23116;DHT22;11727;52.134;5.052;2023-04-07T13:24:23;9.90;99.90
23116;DHT22;11727;52.134;5.052;2023-04-07T13:26:50;9.90;99.90
23116;DHT22;11727;52.134;5.052;2023-04-07T13:29:16;9.90;99.90
23116;DHT22;11727;52.134;5.052;2023-04-07T13:31:44;9.90;99.90
23116;DHT22;11727;52.134;5.052;2023-04-07T13:34:09;9.90;99.90
23116;DHT22;11727;52.134;5.052;2023-04-07T13:36:35;9.90;99.90
23116;DHT22;11727;52.134;5.052;2023-04-07T13:39:01;9.90;99.90
23116;DHT22;11727;52.134;5.052;2023-04-07T13:41:26;9.90;99.90
23116;DHT22;11727;52.134;5.052;2023-04-07T13:43:52;10.00;99.90
23116;DHT22;11727;52.134;5.052;2023-04-07T13:46:18;10.10;99.90
23116;DHT22;11727;52.134;5.052;2023-04-07T13:48:44;10.20;99.90
23116;DHT22;11727;52.134;5.052;2023-04-07T13:51:10;10.40;99.90
23116;DHT22;11727;52.134;5.052;2023-04-07T13:53:36;10.40;99.90
23116;DHT22;11727;52.134;5.052;2023-04-07T13:56:01;10.50;99.90
23116;DHT22;11727;52.134;5.052;2023-04-07T13:58:28;10.60;99.90
23116;DHT22;11727;52.134;5.052;2023-04-07T14:00:54;10.60;99.90
23116;DHT22;11727;52.134;5.052;2023-04-07T14:03:23;10.60;99.90
23116;DHT22;11727;52.134;5.052;2023-04-07T14:05:49;10.70;99.90
23116;DHT22;11727;52.134;5.052;2023-04-07T14:08:14;10.70;99.90
23116;DHT22;11727;52.134;5.052;2023-04-07T14:10:42;10.70;99.90
23116;DHT22;11727;52.134;5.052;2023-04-07T14:13:08;10.80;99.90
23116;DHT22;11727;52.134;5.052;2023-04-07T14:15:33;10.80;99.90
23116;DHT22;11727;52.134;5.052;2023-04-07T14:17:59;10.90;99.90
23116;DHT22;11727;52.134;5.052;2023-04-07T14:20:25;10.90;99.90
23116;DHT22;11727;52.134;5.052;2023-04-07T14:22:51;10.80;99.90
23116;DHT22;11727;52.134;5.052;2023-04-07T14:25:16;10.70;99.90
23116;DHT22;11727;52.134;5.052;2023-04-07T14:27:42;10.60;99.90
23116;DHT22;11727;52.134;5.052;2023-04-07T14:30:08;10.60;99.90
23116;DHT22;11727;52.134;5.052;2023-04-07T14:32:34;10.50;99.90
23116;DHT22;11727;52.134;5.052;2023-04-07T14:35:00;10.40;99.90
23116;DHT22;11727;52.134;5.052;2023-04-07T14:37:27;10.40;99.90
23116;DHT22;11727;52.134;5.052;2023-04-07T14:39:53;10.30;99.90
23116;DHT22;11727;52.134;5.052;2023-04-07T14:42:19;10.20;99.90
23116;DHT22;11727;52.134;5.052;2023-04-07T14:44:45;10.20;99.90
23116;DHT22;11727;52.134;5.052;2023-04-07T14:47:11;10.20;99.90
23116;DHT22;11727;52.134;5.052;2023-04-07T14:49:36;10.20;99.90
23116;DHT22;11727;52.134;5.052;2023-04-07T14:52:02;10.20;99.90
23116;DHT22;11727;52.134;5.052;2023-04-07T14:54:28;10.10;99.90
23116;DHT22;11727;52.134;5.052;2023-04-07T14:56:54;10.10;99.90
23116;DHT22;11727;52.134;5.052;2023-04-07T14:59:19;10.00;99.90
23116;DHT22;11727;52.134;5.052;2023-04-07T15:01:45;10.00;99.90
23116;DHT22;11727;52.134;5.052;2023-04-07T15:04:11;10.00;99.90
23116;DHT22;11727;52.134;5.052;2023-04-07T15:06:40;9.90;99.90
23116;DHT22;11727;52.134;5.052;2023-04-07T15:09:06;9.90;99.90
23116;DHT22;11727;52.134;5.052;2023-04-07T15:11:31;9.90;99.90
23116;DHT22;11727;52.134;5.052;2023-04-07T15:13:58;9.90;99.90
23116;DHT22;11727;52.134;5.052;2023-04-07T15:16:25;9.90;99.90
23116;DHT22;11727;52.134;5.052;2023-04-07T15:18:50;9.80;99.90
23116;DHT22;11727;52.134;5.052;2023-04-07T15:21:16;9.80;99.90
23116;DHT22;11727;52.134;5.052;2023-04-07T15:23:44;9.80;99.90
23116;DHT22;11727;52.134;5.052;2023-04-07T15:26:10;9.70;99.90
23116;DHT22;11727;52.134;5.052;2023-04-07T15:28:36;9.70;99.90
23116;DHT22;11727;52.134;5.052;2023-04-07T15:31:01;9.70;99.90
23116;DHT22;11727;52.134;5.052;2023-04-07T15:33:27;9.80;99.90
23116;DHT22;11727;52.134;5.052;2023-04-07T15:35:53;9.70;99.90
23116;DHT22;11727;52.134;5.052;2023-04-07T15:38:18;9.80;99.90
23116;DHT22;11727;52.134;5.052;2023-04-07T15:40:44;9.70;99.90
23116;DHT22;11727;52.134;5.052;2023-04-07T15:43:10;9.70;99.90
23116;DHT22;11727;52.134;5.052;2023-04-07T15:45:43;9.70;99.90
23116;DHT22;11727;52.134;5.052;2023-04-07T15:48:09;9.70;99.90
23116;DHT22;11727;52.134;5.052;2023-04-07T15:50:35;9.70;99.90
23116;DHT22;11727;52.134;5.052;2023-04-07T15:53:04;9.70;99.90
23116;DHT22;11727;52.134;5.052;2023-04-07T15:55:31;9.70;99.90